createdAt,value
2022-12-27T00:00:55.498Z,13.10
2022-12-27T00:03:23.433Z,12.25
2022-12-27T00:05:52.478Z,12.45
2022-12-27T00:08:20.065Z,12.82
2022-12-27T00:10:47.910Z,13.32
2022-12-27T00:13:15.418Z,12.93
2022-12-27T00:15:43.303Z,12.23
2022-12-27T00:18:11.099Z,13.68
2022-12-27T00:20:39.507Z,12.85
2022-12-27T00:23:07.175Z,13.73
2022-12-27T00:25:34.919Z,13.90
2022-12-27T00:28:02.415Z,13.62
2022-12-27T00:30:31.499Z,12.43
2022-12-27T00:32:59.343Z,12.68
2022-12-27T00:35:26.912Z,12.55
2022-12-27T00:37:54.375Z,11.47
2022-12-27T00:40:22.231Z,11.23
2022-12-27T00:42:49.799Z,11.48
2022-12-27T00:45:17.408Z,11.20
2022-12-27T00:47:45.164Z,11.27
2022-12-27T00:50:12.745Z,11.63
2022-12-27T00:52:40.219Z,12.15
2022-12-27T00:55:09.161Z,13.18
2022-12-27T00:57:36.683Z,15.07
2022-12-27T01:00:10.134Z,16.35
2022-12-27T01:02:38.916Z,19.63
2022-12-27T01:05:07.081Z,17.60
2022-12-27T01:07:34.822Z,16.95
2022-12-27T01:10:02.623Z,15.20
2022-12-27T01:12:30.145Z,12.95
2022-12-27T01:14:57.990Z,12.73
2022-12-27T01:17:25.727Z,12.50
2022-12-27T01:19:53.612Z,13.45
2022-12-27T01:22:21.162Z,11.27
2022-12-27T01:24:49.192Z,10.63
2022-12-27T01:27:16.721Z,9.63
2022-12-27T01:29:46.173Z,8.60
2022-12-27T01:32:14.053Z,7.90
2022-12-27T01:34:41.527Z,6.75
2022-12-27T01:37:09.119Z,6.35
2022-12-27T01:39:37.124Z,6.67
2022-12-27T01:42:23.439Z,6.15
2022-12-27T01:44:58.432Z,5.60
2022-12-27T01:48:06.380Z,5.03
2022-12-27T01:50:47.454Z,4.93
2022-12-27T01:53:25.029Z,5.43
2022-12-27T01:55:54.609Z,4.47
2022-12-27T01:58:35.489Z,4.90
2022-12-27T02:01:11.490Z,5.30
2022-12-27T02:03:42.029Z,5.37
2022-12-27T02:06:11.463Z,4.37
2022-12-27T02:08:58.172Z,4.90
2022-12-27T02:11:48.987Z,3.83
2022-12-27T02:14:31.776Z,3.87
2022-12-27T02:17:03.316Z,3.97
2022-12-27T02:19:40.375Z,4.53
2022-12-27T02:22:24.464Z,3.67
2022-12-27T02:24:58.105Z,4.37
2022-12-27T02:28:03.106Z,4.12
2022-12-27T02:30:32.239Z,4.10
2022-12-27T02:33:07.784Z,3.87
2022-12-27T02:35:41.929Z,4.60
2022-12-27T02:38:13.833Z,3.80
2022-12-27T02:41:02.601Z,3.72
2022-12-27T02:43:49.797Z,4.78
2022-12-27T02:46:41.108Z,3.90
2022-12-27T02:49:49.807Z,3.67
2022-12-27T02:53:08.014Z,3.80
2022-12-27T02:56:09.658Z,3.70
2022-12-27T02:58:52.323Z,3.83
2022-12-27T03:02:16.439Z,3.80
2022-12-27T03:05:17.791Z,3.25
2022-12-27T03:08:00.149Z,4.45
2022-12-27T03:10:56.711Z,3.60
2022-12-27T03:13:55.340Z,3.83
2022-12-27T03:16:32.407Z,3.90
2022-12-27T03:19:40.865Z,3.65
2022-12-27T03:22:28.432Z,3.40
2022-12-27T03:25:15.540Z,3.35
2022-12-27T03:27:44.542Z,3.33
2022-12-27T03:30:31.379Z,3.47
2022-12-27T03:33:13.711Z,3.35
2022-12-27T03:36:15.102Z,3.50
2022-12-27T03:39:12.080Z,3.42
2022-12-27T03:42:07.574Z,3.62
2022-12-27T03:44:36.246Z,3.73
2022-12-27T03:47:19.162Z,4.10
2022-12-27T03:49:54.906Z,4.40
2022-12-27T03:52:26.091Z,5.30
2022-12-27T03:54:53.912Z,5.93
2022-12-27T03:57:24.169Z,4.90
2022-12-27T03:59:52.713Z,3.92
2022-12-27T04:02:20.574Z,3.95
2022-12-27T04:04:50.413Z,3.83
2022-12-27T04:07:18.084Z,3.72
2022-12-27T04:10:04.322Z,3.90
2022-12-27T04:12:50.793Z,4.40
2022-12-27T04:15:37.050Z,3.62
2022-12-27T04:18:23.672Z,3.40
2022-12-27T04:21:10.140Z,3.47
2022-12-27T04:23:56.135Z,3.17
2022-12-27T04:26:42.375Z,3.50
2022-12-27T04:29:29.250Z,3.95
2022-12-27T04:32:15.334Z,3.33
2022-12-27T04:34:46.148Z,3.47
2022-12-27T04:37:18.329Z,4.93
2022-12-27T04:40:09.946Z,18.77
2022-12-27T04:42:55.841Z,7.78
2022-12-27T04:45:42.698Z,4.55
2022-12-27T04:48:33.946Z,4.62
2022-12-27T04:51:20.420Z,3.23
2022-12-27T04:54:06.585Z,3.85
2022-12-27T04:56:34.447Z,3.90
2022-12-27T04:59:20.499Z,4.47
2022-12-27T05:02:18.248Z,3.75
2022-12-27T05:04:46.341Z,3.60
2022-12-27T05:07:33.634Z,3.75
2022-12-27T05:10:23.010Z,3.12
2022-12-27T05:13:09.503Z,3.20
2022-12-27T05:15:37.141Z,3.35
2022-12-27T05:18:05.595Z,3.97
2022-12-27T05:20:36.173Z,3.30
2022-12-27T05:23:22.051Z,3.40
2022-12-27T05:25:49.828Z,3.28
2022-12-27T05:28:17.370Z,6.20
2022-12-27T05:30:44.882Z,4.77
2022-12-27T05:33:12.944Z,4.53
2022-12-27T05:35:40.870Z,3.78
2022-12-27T05:38:08.390Z,4.20
2022-12-27T05:40:36.422Z,4.37
2022-12-27T05:43:04.355Z,4.30
2022-12-27T05:45:32.921Z,3.78
2022-12-27T05:48:01.174Z,3.40
2022-12-27T05:50:28.695Z,4.03
2022-12-27T05:53:10.787Z,4.03
2022-12-27T05:55:38.324Z,4.13
2022-12-27T05:58:07.627Z,3.80
2022-12-27T06:00:35.394Z,4.80
2022-12-27T06:03:03.910Z,6.45
2022-12-27T06:05:31.490Z,5.93
2022-12-27T06:07:59.072Z,6.17
2022-12-27T06:10:26.818Z,4.72
2022-12-27T06:12:54.296Z,5.53
2022-12-27T06:15:21.798Z,10.32
2022-12-27T06:17:49.939Z,4.45
2022-12-27T06:20:18.182Z,4.07
2022-12-27T06:22:45.862Z,4.20
2022-12-27T06:25:14.535Z,4.65
2022-12-27T06:27:42.287Z,6.00
2022-12-27T06:30:12.298Z,7.18
2022-12-27T06:32:40.224Z,4.03
2022-12-27T06:35:08.189Z,5.00
2022-12-27T06:37:35.804Z,4.57
2022-12-27T06:40:04.027Z,3.40
2022-12-27T06:42:31.685Z,3.45
2022-12-27T06:44:59.291Z,4.53
2022-12-27T06:47:27.229Z,4.72
2022-12-27T06:49:55.884Z,3.15
2022-12-27T06:52:23.768Z,4.62
2022-12-27T06:54:51.571Z,5.53
2022-12-27T06:57:19.175Z,3.57
2022-12-27T06:59:50.959Z,4.32
2022-12-27T07:02:21.862Z,7.80
2022-12-27T07:04:49.486Z,8.65
2022-12-27T07:07:17.016Z,6.20
2022-12-27T07:09:44.857Z,7.07
2022-12-27T07:12:12.748Z,7.62
2022-12-27T07:14:40.325Z,7.15
2022-12-27T07:17:08.169Z,5.55
2022-12-27T07:19:35.710Z,6.55
2022-12-27T07:22:03.192Z,5.13
2022-12-27T07:24:33.333Z,4.10
2022-12-27T07:27:02.164Z,5.10
2022-12-27T07:29:29.958Z,4.93
2022-12-27T07:31:58.621Z,6.22
2022-12-27T07:34:26.982Z,6.17
2022-12-27T07:36:54.515Z,6.62
2022-12-27T07:39:22.370Z,5.40
2022-12-27T07:41:50.062Z,4.85
2022-12-27T07:44:19.895Z,4.85
2022-12-27T07:46:48.157Z,4.03
2022-12-27T07:49:18.074Z,4.10
2022-12-27T07:51:45.882Z,3.70
2022-12-27T07:54:13.729Z,4.00
2022-12-27T07:56:41.845Z,4.15
2022-12-27T07:59:11.657Z,3.23
2022-12-27T08:02:02.825Z,2.97
2022-12-27T08:04:33.091Z,3.00
2022-12-27T08:07:06.853Z,2.92
2022-12-27T08:09:37.048Z,3.10
2022-12-27T08:12:06.703Z,4.90
2022-12-27T08:14:34.262Z,3.53
2022-12-27T08:17:21.006Z,4.62
2022-12-27T08:19:51.052Z,3.62
2022-12-27T08:22:18.988Z,4.47
2022-12-27T08:24:46.496Z,3.03
2022-12-27T08:27:20.476Z,3.20
2022-12-27T08:29:48.844Z,3.40
2022-12-27T08:32:16.814Z,2.70
2022-12-27T08:34:44.358Z,2.03
2022-12-27T08:37:12.198Z,1.87
2022-12-27T08:39:39.896Z,1.98
2022-12-27T08:42:11.639Z,1.80
2022-12-27T08:44:39.648Z,2.00
2022-12-27T08:47:07.367Z,2.30
2022-12-27T08:49:35.844Z,2.30
2022-12-27T08:52:03.809Z,1.80
2022-12-27T08:54:31.495Z,1.10
2022-12-27T08:56:59.053Z,1.00
2022-12-27T08:59:27.045Z,1.10
2022-12-27T09:01:55.090Z,0.83
2022-12-27T09:04:22.998Z,1.20
2022-12-27T09:06:50.802Z,1.73
2022-12-27T09:09:18.548Z,0.85
2022-12-27T09:11:46.791Z,0.98
2022-12-27T09:14:15.025Z,1.07
2022-12-27T09:16:42.597Z,1.05
2022-12-27T09:19:10.250Z,0.95
2022-12-27T09:21:41.670Z,0.50
2022-12-27T09:24:13.974Z,0.80
2022-12-27T09:26:41.943Z,0.73
2022-12-27T09:29:10.506Z,0.80
2022-12-27T09:31:38.076Z,0.90
2022-12-27T09:34:05.934Z,0.88
2022-12-27T09:36:33.508Z,0.70
2022-12-27T09:39:01.366Z,0.63
2022-12-27T09:44:47.433Z,0.60
2022-12-27T09:47:19.417Z,0.80
2022-12-27T09:49:51.127Z,0.93
2022-12-27T09:52:34.302Z,0.70
2022-12-27T09:55:18.432Z,0.57
2022-12-27T09:57:47.563Z,1.00
2022-12-27T10:00:34.450Z,0.62
2022-12-27T10:03:06.905Z,0.68
2022-12-27T10:05:37.206Z,0.60
2022-12-27T10:08:14.302Z,0.80
2022-12-27T10:10:53.062Z,1.50
2022-12-27T10:13:30.303Z,1.40
2022-12-27T10:16:19.082Z,0.85
2022-12-27T10:18:59.307Z,0.90
2022-12-27T10:21:28.583Z,0.75
2022-12-27T10:24:01.560Z,0.60
2022-12-27T10:26:29.099Z,2.30
2022-12-27T10:29:03.977Z,1.20
2022-12-27T10:31:32.237Z,0.67
2022-12-27T10:34:00.398Z,0.88
2022-12-27T10:36:29.655Z,0.50
2022-12-27T10:38:57.662Z,0.70
2022-12-27T10:41:50.228Z,0.50
2022-12-27T10:44:17.939Z,0.77
2022-12-27T10:46:54.199Z,0.50
2022-12-27T10:49:28.811Z,0.73
2022-12-27T10:52:08.405Z,0.80
2022-12-27T10:54:36.271Z,0.73
2022-12-27T10:57:34.010Z,0.97
2022-12-27T11:00:19.106Z,2.70
2022-12-27T11:02:57.714Z,1.70
2022-12-27T11:05:33.569Z,0.60
2022-12-27T11:08:19.088Z,1.70
2022-12-27T11:10:46.660Z,0.57
2022-12-27T11:13:19.292Z,0.50
2022-12-27T11:15:58.780Z,0.30
2022-12-27T11:18:27.128Z,0.60
2022-12-27T11:20:56.829Z,0.70
2022-12-27T11:23:27.335Z,0.60
2022-12-27T11:25:57.453Z,0.50
2022-12-27T11:28:34.002Z,0.60
2022-12-27T11:31:04.880Z,0.40
2022-12-27T11:33:39.391Z,0.52
2022-12-27T11:36:09.196Z,0.60
2022-12-27T11:38:38.260Z,0.40
2022-12-27T11:41:11.877Z,0.70
2022-12-27T11:43:47.902Z,0.80
2022-12-27T11:46:45.875Z,0.95
2022-12-27T11:49:27.735Z,1.00
2022-12-27T11:52:18.286Z,1.00
2022-12-27T11:55:04.322Z,0.62
2022-12-27T11:58:06.850Z,0.70
2022-12-27T12:00:47.575Z,0.70
2022-12-27T12:03:37.247Z,0.60
2022-12-27T12:06:34.438Z,0.50
2022-12-27T12:09:29.265Z,0.50
2022-12-27T12:12:35.493Z,1.00
2022-12-27T12:15:22.704Z,0.60
2022-12-27T12:18:19.349Z,0.70
2022-12-27T12:21:08.643Z,0.50
2022-12-27T12:24:03.646Z,0.70
2022-12-27T12:27:05.906Z,0.55
2022-12-27T12:30:00.834Z,0.70
2022-12-27T12:32:48.063Z,0.90
2022-12-27T12:35:27.777Z,0.60
2022-12-27T12:38:25.055Z,0.62
2022-12-27T12:41:04.697Z,0.80
2022-12-27T12:43:51.407Z,0.80
2022-12-27T12:46:37.295Z,0.77
2022-12-27T12:49:05.138Z,0.82
2022-12-27T12:51:57.025Z,1.40
2022-12-27T12:54:45.421Z,2.37
2022-12-27T12:57:38.206Z,1.42
2022-12-27T13:00:12.586Z,0.77
2022-12-27T13:03:03.761Z,1.60
2022-12-27T13:05:38.113Z,1.10
2022-12-27T13:08:17.958Z,0.80
2022-12-27T13:10:51.226Z,0.70
2022-12-27T13:13:45.277Z,0.63
2022-12-27T13:16:26.613Z,0.88
2022-12-27T13:19:25.663Z,1.10
2022-12-27T13:22:08.717Z,0.73
2022-12-27T13:25:17.824Z,0.60
2022-12-27T13:28:11.686Z,0.87
2022-12-27T13:30:43.425Z,0.82
2022-12-27T13:33:35.586Z,0.80
2022-12-27T13:36:09.124Z,1.10
2022-12-27T13:39:01.824Z,0.60
2022-12-27T13:41:42.206Z,0.50
2022-12-27T13:44:46.606Z,0.70
2022-12-27T13:47:29.297Z,0.93
2022-12-27T13:50:28.067Z,0.70
2022-12-27T13:52:59.782Z,0.68
2022-12-27T13:55:37.748Z,0.70
2022-12-27T13:58:36.707Z,0.70
2022-12-27T14:01:04.460Z,0.60
2022-12-27T14:03:51.495Z,1.20
2022-12-27T14:06:49.772Z,0.60
2022-12-27T14:09:17.472Z,0.97
2022-12-27T14:11:49.895Z,0.57
2022-12-27T14:14:18.606Z,0.80
2022-12-27T14:16:59.254Z,0.68
2022-12-27T14:19:52.114Z,0.70
2022-12-27T14:23:01.505Z,0.80
2022-12-27T14:26:19.783Z,0.70
2022-12-27T14:29:19.517Z,0.57
2022-12-27T14:32:03.317Z,0.90
2022-12-27T14:35:08.310Z,0.90
2022-12-27T14:38:05.388Z,0.90
2022-12-27T14:41:18.601Z,1.50
2022-12-27T14:44:03.310Z,2.15
2022-12-27T14:46:43.657Z,1.25
2022-12-27T14:49:33.160Z,1.20
2022-12-27T14:52:24.232Z,1.83
2022-12-27T14:55:21.887Z,4.53
2022-12-27T14:57:55.588Z,2.33
2022-12-27T15:00:24.871Z,1.37
2022-12-27T15:02:55.443Z,0.50
2022-12-27T15:05:32.516Z,1.00
2022-12-27T15:08:22.172Z,1.58
2022-12-27T15:10:53.058Z,1.90
2022-12-27T15:13:20.523Z,1.62
2022-12-27T15:15:56.769Z,1.70
2022-12-27T15:18:46.134Z,1.40
2022-12-27T15:21:13.648Z,0.90
2022-12-27T15:23:52.112Z,1.62
2022-12-27T15:26:34.804Z,2.85
2022-12-27T15:29:11.468Z,2.80
2022-12-27T15:31:53.521Z,1.90
2022-12-27T15:34:30.512Z,1.58
2022-12-27T15:36:58.365Z,2.10
2022-12-27T15:39:35.589Z,1.55
2022-12-27T15:42:21.347Z,1.80
2022-12-27T15:44:55.857Z,2.63
2022-12-27T15:47:45.738Z,2.47
2022-12-27T15:50:21.475Z,3.30
2022-12-27T15:52:54.840Z,2.72
2022-12-27T15:55:47.262Z,3.05
2022-12-27T15:58:17.719Z,2.13
2022-12-27T16:00:46.471Z,1.37
2022-12-27T16:03:36.129Z,1.12
2022-12-27T16:06:05.848Z,1.80
2022-12-27T16:08:36.639Z,1.90
2022-12-27T16:11:07.597Z,2.83
2022-12-27T16:13:46.719Z,2.17
2022-12-27T16:16:26.034Z,1.77
2022-12-27T16:19:35.423Z,2.92
2022-12-27T16:22:38.750Z,1.90
2022-12-27T16:25:37.903Z,1.30
2022-12-27T16:28:19.157Z,1.70
2022-12-27T16:30:49.596Z,2.25
2022-12-27T16:33:37.962Z,1.25
2022-12-27T16:36:11.652Z,0.93
2022-12-27T16:38:51.948Z,1.23
2022-12-27T16:41:25.868Z,2.50
2022-12-27T16:44:02.468Z,2.70
2022-12-27T16:46:47.506Z,2.20
2022-12-27T16:49:30.300Z,2.45
2022-12-27T16:52:12.954Z,3.20
2022-12-27T16:54:51.574Z,1.85
2022-12-27T16:57:25.480Z,2.45
2022-12-27T17:00:11.190Z,2.37
2022-12-27T17:02:46.283Z,3.83
2022-12-27T17:05:16.907Z,4.30
2022-12-27T17:07:49.116Z,2.85
2022-12-27T17:10:30.276Z,2.03
2022-12-27T17:13:05.387Z,2.30
2022-12-27T17:15:33.093Z,2.05
2022-12-27T17:18:09.401Z,1.40
2022-12-27T17:20:38.764Z,1.85
2022-12-27T17:23:07.557Z,1.40
2022-12-27T17:25:44.863Z,2.10
2022-12-27T17:28:22.804Z,2.00
2022-12-27T17:30:59.732Z,3.03
2022-12-27T17:33:49.486Z,2.75
2022-12-27T17:36:26.517Z,3.15
2022-12-27T17:39:33.415Z,3.65
2022-12-27T17:42:27.655Z,4.12
2022-12-27T17:44:55.296Z,2.50
2022-12-27T17:47:25.794Z,2.60
2022-12-27T17:49:54.019Z,1.95
2022-12-27T17:52:43.847Z,2.20
2022-12-27T17:55:37.394Z,3.65
2022-12-27T17:58:09.648Z,2.97
2022-12-27T18:00:42.747Z,3.05
2022-12-27T18:03:13.586Z,2.30
2022-12-27T18:05:43.175Z,2.25
2022-12-27T18:08:21.856Z,2.40
2022-12-27T18:10:49.793Z,2.20
2022-12-27T18:13:20.468Z,2.37
2022-12-27T18:15:49.504Z,1.90
2022-12-27T18:18:23.329Z,1.62
2022-12-27T18:21:21.174Z,2.03
2022-12-27T18:23:52.710Z,2.53
2022-12-27T18:26:36.630Z,2.10
2022-12-27T18:29:05.655Z,2.42
2022-12-27T18:31:48.739Z,2.87
2022-12-27T18:34:35.717Z,2.85
2022-12-27T18:37:07.462Z,3.13
2022-12-27T18:39:54.219Z,2.22
2022-12-27T18:42:35.561Z,2.00
2022-12-27T18:45:14.966Z,1.90
2022-12-27T18:47:46.862Z,1.20
2022-12-27T18:50:18.636Z,1.43
2022-12-27T18:52:52.900Z,2.00
2022-12-27T18:55:27.963Z,3.33
2022-12-27T18:58:06.062Z,3.47
2022-12-27T19:00:47.967Z,4.35
2022-12-27T19:03:18.040Z,4.17
2022-12-27T19:06:06.762Z,3.87
2022-12-27T19:08:50.130Z,3.42
2022-12-27T19:11:23.415Z,3.97
2022-12-27T19:13:54.374Z,4.30
2022-12-27T19:16:29.245Z,4.17
2022-12-27T19:19:00.151Z,3.78
2022-12-27T19:21:34.300Z,3.33
2022-12-27T19:24:32.312Z,3.95
2022-12-27T19:27:16.386Z,3.75
2022-12-27T19:29:50.054Z,3.80
2022-12-27T19:32:22.267Z,2.90
2022-12-27T19:34:52.584Z,2.40
2022-12-27T19:37:21.030Z,2.50
2022-12-27T19:39:48.913Z,2.67
2022-12-27T19:42:24.918Z,2.90
2022-12-27T19:44:52.722Z,2.75
2022-12-27T19:47:20.291Z,2.70
2022-12-27T19:49:47.945Z,2.00
2022-12-27T19:52:18.568Z,2.62
2022-12-27T19:54:47.203Z,3.30
2022-12-27T19:57:14.792Z,3.22
2022-12-27T19:59:42.694Z,2.83
2022-12-27T20:02:10.543Z,2.62
2022-12-27T20:04:38.673Z,2.37
2022-12-27T20:07:06.183Z,2.93
2022-12-27T20:09:34.064Z,3.03
2022-12-27T20:12:02.488Z,2.15
2022-12-27T20:14:30.487Z,2.62
2022-12-27T20:16:58.423Z,2.35
2022-12-27T20:19:26.455Z,3.17
2022-12-27T20:21:53.965Z,2.67
2022-12-27T20:24:21.488Z,3.12
2022-12-27T20:26:49.296Z,2.42
2022-12-27T20:29:16.867Z,2.85
2022-12-27T20:31:46.224Z,2.80
2022-12-27T20:34:14.258Z,3.50
2022-12-27T20:36:42.113Z,3.37
2022-12-27T20:39:09.869Z,3.47
2022-12-27T20:41:37.904Z,3.50
2022-12-27T20:44:05.871Z,3.57
2022-12-27T20:46:33.607Z,2.97
2022-12-27T20:49:02.021Z,2.90
2022-12-27T20:51:33.331Z,2.80
2022-12-27T20:54:02.428Z,2.92
2022-12-27T20:56:30.386Z,2.77
2022-12-27T20:58:57.917Z,2.80
2022-12-27T21:01:26.511Z,2.67
2022-12-27T21:03:56.122Z,2.70
2022-12-27T21:06:26.448Z,2.70
2022-12-27T21:08:57.515Z,3.17
2022-12-27T21:11:33.787Z,2.90
2022-12-27T21:14:03.219Z,2.58
2022-12-27T21:16:32.862Z,3.40
2022-12-27T21:19:05.010Z,2.67
2022-12-27T21:21:35.435Z,3.00
2022-12-27T21:24:03.753Z,2.87
2022-12-27T21:26:33.965Z,2.95
2022-12-27T21:29:04.167Z,2.87
2022-12-27T21:31:32.218Z,3.15
2022-12-27T21:34:00.227Z,5.00
2022-12-27T21:36:30.296Z,6.00
2022-12-27T21:38:58.847Z,3.85
2022-12-27T21:41:28.855Z,4.68
2022-12-27T21:43:56.668Z,4.87
2022-12-27T21:46:26.926Z,3.77
2022-12-27T21:48:56.593Z,4.12
2022-12-27T21:51:25.271Z,4.97
2022-12-27T21:53:53.300Z,4.03
2022-12-27T21:56:21.228Z,3.62
2022-12-27T21:58:49.348Z,3.37
2022-12-27T22:01:22.867Z,3.75
2022-12-27T22:03:52.406Z,3.53
2022-12-27T22:06:22.452Z,3.12
2022-12-27T22:08:52.145Z,3.25
2022-12-27T22:11:21.604Z,2.77
2022-12-27T22:13:49.168Z,2.78
2022-12-27T22:16:22.032Z,2.45
2022-12-27T22:18:50.520Z,4.05
2022-12-27T22:21:21.047Z,4.37
2022-12-27T22:23:51.201Z,5.37
2022-12-27T22:26:21.873Z,4.72
2022-12-27T22:28:49.854Z,4.53
2022-12-27T22:31:20.580Z,4.85
2022-12-27T22:33:49.557Z,5.05
2022-12-27T22:36:22.623Z,4.63
2022-12-27T22:38:51.298Z,3.58
2022-12-27T22:41:26.762Z,2.50
2022-12-27T22:44:15.158Z,1.90
2022-12-27T22:47:25.252Z,2.08
2022-12-27T22:49:31.149Z,2.77
2022-12-27T22:51:58.702Z,3.17
2022-12-27T22:55:05.484Z,2.45
2022-12-27T22:57:14.153Z,2.20
2022-12-27T22:59:41.891Z,1.50
2022-12-27T23:02:09.546Z,1.77
2022-12-27T23:04:37.398Z,1.95
2022-12-27T23:07:05.240Z,1.62
2022-12-27T23:09:40.854Z,1.75
2022-12-27T23:12:11.342Z,2.03
2022-12-27T23:14:39.485Z,1.93
2022-12-27T23:17:06.985Z,1.02
2022-12-27T23:19:34.787Z,1.50
2022-12-27T23:22:02.378Z,1.80
2022-12-27T23:24:29.872Z,2.97
2022-12-27T23:26:57.751Z,2.43
2022-12-27T23:29:25.381Z,2.37
2022-12-27T23:31:54.881Z,1.30
2022-12-27T23:34:28.255Z,2.53
2022-12-27T23:36:58.155Z,2.72
2022-12-27T23:39:26.366Z,3.27
2022-12-27T23:41:53.989Z,3.05
2022-12-27T23:44:33.902Z,2.78
2022-12-27T23:47:06.032Z,3.40
2022-12-27T23:49:34.480Z,3.20
2022-12-27T23:52:02.507Z,4.50
2022-12-27T23:54:30.443Z,2.75
2022-12-27T23:56:58.077Z,3.37
2022-12-27T23:59:25.955Z,3.42
